Time;durP1;ratioP1;P1;durP2;ratioP2;P2;SDS_P1;SDS_P2;PMS_P1;PMS_P2;Temp;Humidity;BMP_temperature;BMP_pressure;BME280_temperature;BME280_humidity;BME280_pressure;Samples;Min_cycle;Max_cycle;Signal;HPM_P1;HPM_P2
2022/02/07 00:00:18;;;;;;;1.65;0.40;;;;;;;4.57;76.85;98947.84;10313515;28;20053;-62
2022/02/07 00:05:24;;;;;;;1.20;0.40;;;;;;;4.57;77.28;98966.28;10330125;28;20137;-62
2022/02/07 00:10:26;;;;;;;2.85;0.55;;;;;;;4.67;77.78;98994.59;10328556;28;20058;-62
2022/02/07 00:15:28;;;;;;;2.25;0.50;;;;;;;4.48;76.92;98988.06;10315470;28;20137;-62
2022/02/07 00:20:29;;;;;;;1.10;0.85;;;;;;;4.54;73.99;99021.03;10319129;28;20061;-63
2022/02/07 00:25:31;;;;;;;1.70;0.70;;;;;;;4.55;73.18;99018.28;10315409;28;22223;-62
2022/02/07 00:30:32;;;;;;;1.88;1.25;;;;;;;4.55;73.74;99034.09;10317069;28;20133;-63
2022/02/07 00:35:34;;;;;;;3.28;0.80;;;;;;;4.62;73.99;99045.00;10316436;28;20053;-63
2022/02/07 00:40:57;;;;;;;2.67;0.93;;;;;;;4.56;72.12;99059.53;10319051;28;20062;-62
2022/02/07 00:46:07;;;;;;;1.33;0.60;;;;;;;4.37;71.61;99077.66;10318856;28;20050;-63
2022/02/07 00:51:10;;;;;;;4.72;0.95;;;;;;;4.44;70.59;99076.22;10318008;28;20043;-62
2022/02/07 00:56:12;;;;;;;2.70;0.68;;;;;;;4.38;69.47;99084.56;10314687;28;20559;-62
2022/02/07 01:01:13;;;;;;;2.95;0.95;;;;;;;4.39;69.73;99083.63;10318685;28;20957;-63
2022/02/07 01:06:15;;;;;;;4.63;0.80;;;;;;;4.27;69.60;99100.34;10317265;28;20061;-63
2022/02/07 01:11:30;;;;;;;4.63;1.33;;;;;;;4.15;70.29;99097.63;10312515;28;20046;-61
2022/02/07 01:54:05;;;;;;;1.42;0.30;;;;;;;2.92;86.95;99332.28;10295055;28;20096;-62
2022/02/07 01:59:04;;;;;;;3.40;0.43;;;;;;;3.04;83.38;99368.28;10313407;28;20050;-64
2022/02/07 02:04:07;;;;;;;3.05;0.52;;;;;;;3.22;79.03;99386.47;10314885;28;20054;-63
2022/02/07 02:09:10;;;;;;;1.55;0.52;;;;;;;3.36;77.52;99402.22;10312814;28;20049;-63
2022/02/07 02:14:25;;;;;;;3.15;0.73;;;;;;;3.41;75.91;99400.16;10312294;28;20046;-64
2022/02/07 02:45:37;;;;;;;2.60;0.90;;;;;;;3.32;73.42;99516.50;10314555;28;20076;-62
2022/02/07 02:50:41;;;;;;;4.03;0.63;;;;;;;3.36;72.83;99539.00;10308861;28;20216;-62
2022/02/07 02:55:44;;;;;;;2.90;1.05;;;;;;;3.32;71.96;99548.06;10312762;28;20053;-61
2022/02/07 03:00:49;;;;;;;3.00;1.08;;;;;;;3.26;72.51;99569.44;10311188;28;20089;-62
2022/02/07 03:05:51;;;;;;;4.22;1.10;;;;;;;3.27;71.75;99568.53;10310759;28;20046;-62
2022/02/07 03:21:14;;;;;;;5.72;1.00;;;;;;;3.41;70.57;99646.59;10313802;28;20060;-62
2022/02/07 03:26:19;;;;;;;6.22;1.30;;;;;;;3.46;70.97;99660.34;10318603;28;20141;-62
2022/02/07 03:31:20;;;;;;;5.83;1.33;;;;;;;3.44;70.60;99662.19;10315892;28;20042;-62
2022/02/07 03:36:22;;;;;;;15.30;3.15;;;;;;;3.51;70.35;99695.97;10315412;28;20827;-62
2022/02/07 03:41:24;;;;;;;6.50;1.30;;;;;;;3.56;70.76;99718.50;10316543;28;20057;-62
2022/02/07 03:46:25;;;;;;;3.60;1.17;;;;;;;3.43;72.64;99727.16;10318877;28;20217;-62
2022/02/07 03:51:27;;;;;;;6.35;1.30;;;;;;;3.56;74.17;99750.97;10328376;28;20064;-61
2022/02/07 03:56:28;;;;;;;4.60;1.45;;;;;;;3.48;73.50;99768.97;10315722;28;20424;-62
2022/02/07 04:01:33;;;;;;;7.38;1.35;;;;;;;3.45;72.77;99775.28;10317335;28;20072;-62
2022/02/07 04:06:34;;;;;;;;;;;;;;;3.52;71.88;99787.13;10312671;28;20628;-63
2022/02/07 04:11:43;;;;;;;6.88;1.33;;;;;;;3.53;71.62;99809.88;10313541;28;19926;-63
2022/02/07 04:16:44;;;;;;;7.03;1.55;;;;;;;3.44;72.38;99826.22;10315783;28;20050;-60
2022/02/07 04:21:49;;;;;;;4.15;1.17;;;;;;;3.47;71.41;99828.66;10312406;28;20484;-61
2022/02/07 04:26:51;;;;;;;6.25;1.73;;;;;;;3.61;71.89;99843.66;10319825;28;20046;-61
2022/02/07 04:31:52;;;;;;;5.20;1.05;;;;;;;3.54;71.36;99861.59;10318567;28;20062;-61
2022/02/07 04:36:56;;;;;;;9.18;1.88;;;;;;;3.49;71.67;99876.78;10315697;28;20042;-62
2022/02/07 04:41:58;;;;;;;3.47;1.75;;;;;;;3.53;72.20;99898.53;10312245;28;20050;-62
2022/02/07 04:47:20;;;;;;;4.65;2.05;;;;;;;3.54;72.77;99922.13;10313374;28;20060;-63
2022/02/07 04:59:01;;;;;;;4.95;1.48;;;;;;;3.40;72.40;99929.94;10314581;28;20065;-63
2022/02/07 05:03:22;;;;;;;3.33;1.52;;;;;;;3.45;72.36;99970.00;10309341;28;20532;-62
2022/02/07 05:18:49;;;;;;;6.88;1.90;;;;;;;3.61;72.51;99992.84;10313740;28;20059;-61
2022/02/07 05:23:53;;;;;;;5.53;1.30;;;;;;;3.56;72.10;99995.72;10313535;28;20056;-62
2022/02/07 05:28:58;;;;;;;5.53;1.55;;;;;;;3.58;70.96;100035.13;10312185;28;20444;-61
2022/02/07 05:34:00;;;;;;;2.13;1.23;;;;;;;3.56;70.76;100018.53;10313468;28;20046;-62
2022/02/07 05:39:02;;;;;;;2.60;1.20;;;;;;;3.55;71.64;100057.19;10313644;28;20134;-61
2022/02/07 05:44:04;;;;;;;3.78;1.80;;;;;;;3.51;72.10;100069.69;10311994;28;20054;-61
2022/02/07 05:49:06;;;;;;;3.90;1.50;;;;;;;3.57;73.03;100091.31;10310652;28;20097;-61
2022/02/07 05:54:07;;;;;;;7.82;2.05;;;;;;;3.48;72.89;100093.53;10325095;28;20048;-61
2022/02/07 05:59:08;;;;;;;5.63;2.53;;;;;;;3.41;73.46;100089.53;10294178;28;20062;-61
2022/02/07 06:04:10;;;;;;;7.93;1.67;;;;;;;3.43;73.78;100119.22;10309225;28;20432;-62
2022/02/07 06:09:11;;;;;;;7.95;2.13;;;;;;;3.42;72.80;100122.78;10305874;28;20053;-62
2022/02/07 06:14:13;;;;;;;4.55;1.50;;;;;;;3.39;73.16;100128.22;10306308;28;20050;-62
2022/02/07 06:19:14;;;;;;;7.32;1.70;;;;;;;3.52;73.46;100154.75;10296596;28;21396;-61
2022/02/07 06:24:15;;;;;;;6.60;1.98;;;;;;;3.58;73.33;100164.94;10313510;28;20057;-62
2022/02/07 06:29:17;;;;;;;5.75;2.40;;;;;;;3.45;74.07;100159.50;10330435;28;20042;-63
2022/02/07 06:34:18;;;;;;;7.18;1.42;;;;;;;3.68;73.27;100175.84;10326954;28;20061;-62
2022/02/07 06:39:19;;;;;;;7.03;2.90;;;;;;;3.52;74.75;100179.25;10344504;28;20053;-62
2022/02/07 06:44:21;;;;;;;8.05;2.63;;;;;;;3.61;74.09;100190.25;10340093;28;20137;-62
2022/02/07 06:49:23;;;;;;;8.10;2.33;;;;;;;3.82;73.27;100222.50;10337979;28;20128;-62
2022/02/07 06:54:24;;;;;;;6.38;2.22;;;;;;;3.65;73.37;100218.13;10339753;28;20064;-62
2022/02/07 06:59:27;;;;;;;9.63;2.25;;;;;;;3.68;73.93;100228.50;10336548;28;20061;-61
2022/02/07 07:04:29;;;;;;;8.48;2.55;;;;;;;3.80;73.66;100250.69;10340928;28;20050;-62
2022/02/07 07:09:32;;;;;;;6.68;1.38;;;;;;;3.79;75.97;100255.09;10340350;28;20054;-63
2022/02/07 07:15:13;;;;;;;7.50;3.17;;;;;;;4.21;75.15;100259.03;10341105;28;20037;-63
2022/02/07 07:20:05;;;;;;;8.70;2.50;;;;;;;4.43;72.66;100284.22;10316329;28;20682;-60
2022/02/07 07:25:13;;;;;;;4.80;2.92;;;;;;;4.15;71.91;100288.34;10301635;28;20049;-61
2022/02/07 07:30:15;;;;;;;9.65;2.63;;;;;;;3.99;71.74;100292.72;10302635;28;20572;-63
2022/02/07 07:35:16;;;;;;;8.07;2.53;;;;;;;3.96;71.44;100319.22;10301466;28;20061;-62
2022/02/07 07:40:18;;;;;;;7.55;2.47;;;;;;;4.02;71.28;100319.75;10302954;28;20054;-62
2022/02/07 07:45:24;;;;;;;6.40;1.73;;;;;;;4.06;71.28;100333.63;10296322;28;20056;-65
2022/02/07 07:50:48;;;;;;;5.78;2.10;;;;;;;4.26;70.76;100335.19;10307838;28;20064;-62
2022/02/07 08:01:44;;;;;;;7.93;2.05;;;;;;;4.41;70.73;100359.88;10293319;28;20050;-62
2022/02/07 08:11:51;;;;;;;6.33;2.27;;;;;;;4.45;70.99;100379.88;10302143;28;20058;-62
2022/02/07 08:16:53;;;;;;;8.38;2.00;;;;;;;4.57;71.18;100423.19;10314303;28;20113;-62
2022/02/07 08:21:57;;;;;;;9.23;2.17;;;;;;;4.65;70.90;100435.97;10302474;28;20071;-62
2022/02/07 08:26:59;;;;;;;8.87;2.40;;;;;;;4.86;70.05;100433.97;10314279;28;20050;-62
2022/02/07 08:32:00;;;;;;;5.63;2.28;;;;;;;5.00;69.69;100451.69;10305065;28;20053;-62
2022/02/07 08:37:02;;;;;;;7.32;2.10;;;;;;;5.04;69.11;100459.34;10310457;28;20515;-63
2022/02/07 08:42:04;;;;;;;8.38;2.83;;;;;;;4.96;67.99;100467.69;10309044;28;20751;-62
2022/02/07 08:47:06;;;;;;;3.90;1.90;;;;;;;4.99;69.00;100486.94;10306158;28;20058;-62
2022/02/07 08:52:07;;;;;;;8.70;1.88;;;;;;;5.05;68.42;100492.72;10314372;28;20394;-60
2022/02/07 08:57:34;;;;;;;6.85;1.98;;;;;;;5.00;67.64;100512.38;10301407;28;20430;-62
2022/02/07 09:03:06;;;;;;;5.28;1.65;;;;;;;5.18;68.16;100521.09;10306821;28;20073;-62
2022/02/07 09:08:23;;;;;;;5.10;1.63;;;;;;;5.39;68.29;100521.72;10299292;28;20496;-61
2022/02/07 09:13:30;;;;;;;5.95;1.90;;;;;;;5.34;67.35;100539.59;10295670;28;20087;-61
2022/02/07 09:18:34;;;;;;;8.57;1.88;;;;;;;5.63;67.99;100545.91;10304831;28;20050;-64
2022/02/07 09:23:37;;;;;;;5.25;1.75;;;;;;;5.78;66.53;100570.63;10303343;28;20443;-61
2022/02/07 09:28:39;;;;;;;7.05;1.92;;;;;;;5.94;66.65;100586.50;10304664;28;20196;-60
2022/02/07 09:33:43;;;;;;;6.60;1.73;;;;;;;6.21;67.16;100578.84;10301712;28;20060;-61
2022/02/07 09:38:45;;;;;;;5.70;1.83;;;;;;;6.43;65.37;100562.59;10299228;28;20505;-61
2022/02/07 09:43:49;;;;;;;9.43;2.47;;;;;;;6.99;64.67;100591.91;10305628;28;20054;-61
2022/02/07 09:48:53;;;;;;;5.07;1.77;;;;;;;8.04;61.13;100622.53;10305256;28;20065;-61
2022/02/07 09:53:55;;;;;;;6.32;1.73;;;;;;;8.77;56.17;100641.75;10300890;28;20056;-61
2022/02/07 09:58:57;;;;;;;7.03;1.67;;;;;;;9.23;52.46;100630.63;10306078;28;20132;-61
2022/02/07 10:04:09;;;;;;;5.30;1.95;;;;;;;9.93;52.51;100658.56;10308028;28;20144;-60
2022/02/07 10:14:24;;;;;;;6.00;1.90;;;;;;;11.59;46.93;100704.00;10311221;28;20628;-63
2022/02/07 10:36:03;;;;;;;4.50;1.50;;;;;;;12.76;46.48;100767.75;10304851;28;20451;-61
2022/02/07 10:41:40;;;;;;;6.28;1.98;;;;;;;13.35;44.45;100775.38;10300777;28;20053;-61
2022/02/07 10:46:21;;;;;;;8.82;2.17;;;;;;;14.52;40.81;100785.88;10301837;28;20045;-63
2022/02/07 10:51:33;;;;;;;9.32;1.95;;;;;;;12.01;44.58;100813.69;10299956;28;20584;-61
2022/02/07 10:56:44;;;;;;;7.50;2.05;;;;;;;14.65;41.62;100818.66;10308450;28;20322;-65
2022/02/07 11:06:57;;;;;;;6.30;2.72;;;;;;;21.48;28.79;100797.03;10313522;28;20145;-63
2022/02/07 11:12:19;;;;;;;5.68;2.60;;;;;;;22.44;27.63;100812.75;10300555;28;20054;-61
2022/02/07 11:28:26;;;;;;;5.63;1.50;;;;;;;20.65;28.08;100872.44;10303164;28;20188;-62
2022/02/07 11:33:52;;;;;;;6.82;1.92;;;;;;;17.73;32.54;100867.59;10315974;28;20061;-61
2022/02/07 11:39:07;;;;;;;4.95;1.52;;;;;;;13.54;39.23;100883.47;10314703;28;20054;-61
2022/02/07 11:44:08;;;;;;;8.15;2.03;;;;;;;13.91;39.31;100867.00;10311628;28;20050;-62
2022/02/07 11:49:10;;;;;;;7.47;1.40;;;;;;;16.75;34.08;100878.97;10318006;28;20145;-60
2022/02/07 11:54:11;;;;;;;4.75;1.23;;;;;;;19.71;31.47;100890.97;10311955;28;20041;-62
2022/02/07 11:59:39;;;;;;;5.72;1.55;;;;;;;24.18;24.09;100892.38;10324047;28;20057;-62
2022/02/07 12:04:46;;;;;;;2.35;1.23;;;;;;;26.85;21.76;100895.91;10344368;28;20058;-62
2022/02/07 12:10:05;;;;;;;3.53;1.42;;;;;;;27.89;19.61;100901.22;10343741;28;20420;-61
2022/02/07 12:15:46;;;;;;;5.97;1.48;;;;;;;20.29;27.82;100881.81;10312853;28;20046;-61
2022/02/07 12:20:50;;;;;;;5.05;2.10;;;;;;;16.96;33.76;100946.84;10309279;28;20058;-61
2022/02/07 12:25:58;;;;;;;4.75;2.45;;;;;;;12.83;41.91;100956.81;10308926;28;20333;-61
2022/02/07 12:31:19;;;;;;;4.82;1.65;;;;;;;10.34;51.36;100975.88;10311029;28;20054;-63
2022/02/07 12:36:22;;;;;;;4.35;1.83;;;;;;;10.74;53.16;100981.97;10313180;28;20132;-60
2022/02/07 12:41:26;;;;;;;4.90;2.00;;;;;;;13.13;46.48;100986.59;10310991;28;20534;-60
2022/02/07 12:46:31;;;;;;;6.07;1.77;;;;;;;13.90;44.65;100969.66;10307145;28;20054;-60
2022/02/07 12:51:42;;;;;;;9.68;2.47;;;;;;;12.21;46.77;100976.75;10305900;28;20057;-61
2022/02/07 12:56:44;;;;;;;5.90;2.55;;;;;;;13.82;44.98;100975.66;10317930;28;20044;-61
2022/02/07 13:01:46;;;;;;;7.25;2.20;;;;;;;19.47;33.42;100967.38;10313290;28;20050;-60
2022/02/07 13:06:56;;;;;;;5.53;2.38;;;;;;;21.89;29.06;100968.28;10304372;28;20046;-61
2022/02/07 13:12:05;;;;;;;6.75;2.30;;;;;;;20.41;29.93;100958.03;10311388;28;20536;-61
2022/02/07 13:17:09;;;;;;;5.22;1.60;;;;;;;19.95;28.59;100990.09;10316813;28;20042;-61
2022/02/07 13:22:11;;;;;;;;;;;;;;;16.72;34.54;100979.59;10316867;28;20694;-62
2022/02/07 13:27:15;;;;;;;8.45;2.38;;;;;;;18.05;32.34;100987.41;10309006;28;19925;-62
2022/02/07 13:32:18;;;;;;;6.57;2.63;;;;;;;15.47;34.66;100985.66;10307283;28;20496;-61
2022/02/07 13:37:28;;;;;;;8.95;2.35;;;;;;;12.42;41.60;101008.13;10307646;28;20061;-60
2022/02/07 13:42:37;;;;;;;9.80;2.08;;;;;;;15.68;36.59;100996.28;10306471;28;20054;-61
2022/02/07 13:47:45;;;;;;;6.28;1.45;;;;;;;13.69;38.75;100991.88;10311449;28;20483;-61
2022/02/07 13:52:49;;;;;;;3.78;1.15;;;;;;;13.08;40.04;101045.75;10302728;28;20432;-61
2022/02/07 13:57:55;;;;;;;3.60;1.75;;;;;;;13.20;41.53;101038.59;10310523;28;20054;-61
2022/02/07 14:03:16;;;;;;;7.97;1.52;;;;;;;19.33;30.65;101026.38;10311974;28;20045;-63
2022/02/07 14:08:44;;;;;;;3.70;1.50;;;;;;;22.06;26.58;101031.34;10301701;28;20181;-62
2022/02/07 14:13:46;;;;;;;4.40;1.42;;;;;;;24.49;23.70;101029.03;10301584;28;20103;-63
2022/02/07 14:18:48;;;;;;;6.43;1.30;;;;;;;26.11;21.85;101027.81;10304608;28;20050;-61
2022/02/07 14:23:52;;;;;;;6.03;2.55;;;;;;;26.75;21.13;101028.28;10308714;28;20057;-62
2022/02/07 14:29:14;;;;;;;5.40;1.23;;;;;;;26.12;21.30;101031.38;10307398;28;20397;-63
2022/02/07 14:34:16;;;;;;;4.25;1.20;;;;;;;25.43;21.45;101040.56;10306572;28;20057;-63
2022/02/07 14:39:18;;;;;;;3.72;0.93;;;;;;;24.87;21.45;101047.75;10312003;28;20196;-64
2022/02/07 14:44:26;;;;;;;6.60;1.65;;;;;;;24.69;20.96;101057.25;10309379;28;20056;-63
2022/02/07 14:49:29;;;;;;;4.80;1.45;;;;;;;24.81;21.40;101048.56;10314214;28;20049;-62
2022/02/07 14:54:32;;;;;;;4.53;1.63;;;;;;;25.67;20.64;101064.59;10305978;28;20054;-62
2022/02/07 14:59:33;;;;;;;3.63;1.67;;;;;;;26.25;20.17;101076.94;10311624;28;20069;-61
2022/02/07 15:04:35;;;;;;;6.18;1.55;;;;;;;24.93;20.61;101087.81;10299501;28;20058;-61
2022/02/07 15:09:36;;;;;;;5.22;1.50;;;;;;;24.75;21.17;101084.75;10308985;28;20050;-62
2022/02/07 15:14:38;;;;;;;5.03;1.05;;;;;;;23.06;22.64;101091.03;10307524;28;20420;-60
2022/02/07 15:19:41;;;;;;;8.00;1.63;;;;;;;20.47;25.78;101092.53;10318637;28;20041;-61
2022/02/07 15:24:42;;;;;;;3.92;1.10;;;;;;;16.23;31.73;101110.47;10314115;28;20060;-59
2022/02/07 15:29:44;;;;;;;5.15;2.17;;;;;;;14.19;35.02;101098.44;10314125;28;20044;-61
2022/02/07 15:34:51;;;;;;;6.28;2.08;;;;;;;13.04;37.57;101114.63;10320224;28;20054;-60
2022/02/07 15:39:53;;;;;;;4.72;1.40;;;;;;;12.29;37.71;101118.47;10313716;28;20132;-61
2022/02/07 15:44:59;;;;;;;5.78;2.03;;;;;;;11.01;40.97;101113.38;10317533;28;20453;-60
2022/02/07 15:50:04;;;;;;;5.13;1.67;;;;;;;10.70;42.60;101110.09;10314810;28;20047;-61
2022/02/07 15:55:06;;;;;;;;;;;;;;;10.59;42.94;101146.28;10316513;28;20057;-60
2022/02/07 16:00:09;;;;;;;6.38;1.70;;;;;;;10.08;43.83;101146.06;10317995;28;19928;-64
2022/02/07 16:05:10;;;;;;;5.57;1.40;;;;;;;9.85;43.94;101145.72;10315963;28;20497;-61
2022/02/07 16:10:12;;;;;;;4.93;1.85;;;;;;;9.60;44.90;101156.19;10311448;28;20061;-63
2022/02/07 16:15:15;;;;;;;4.43;1.50;;;;;;;9.16;45.22;101145.53;10340673;28;20320;-62
2022/02/07 16:20:16;;;;;;;6.03;1.58;;;;;;;9.02;45.68;101145.47;10315011;28;20092;-61
2022/02/07 16:25:18;;;;;;;6.45;2.10;;;;;;;9.08;46.80;101141.63;10322259;28;20053;-62
2022/02/07 16:30:19;;;;;;;6.72;1.60;;;;;;;8.82;46.78;101165.25;10306415;28;20081;-61
2022/02/07 16:35:21;;;;;;;8.38;1.65;;;;;;;8.54;46.95;101139.47;10309898;28;20064;-62
2022/02/07 16:40:23;;;;;;;4.28;1.30;;;;;;;8.53;47.77;101177.56;10303963;28;20065;-61
2022/02/07 16:45:37;;;;;;;5.25;2.03;;;;;;;8.25;47.64;101169.31;10313589;28;20052;-62
2022/02/07 16:50:39;;;;;;;4.78;1.75;;;;;;;8.35;48.00;101204.19;10310986;28;20099;-63
2022/02/07 16:55:42;;;;;;;5.35;1.73;;;;;;;8.05;49.03;101210.22;10310920;28;20081;-62
2022/02/07 17:00:43;;;;;;;6.05;2.00;;;;;;;7.97;49.26;101215.06;10306936;28;20064;-60
2022/02/07 17:05:45;;;;;;;6.45;1.60;;;;;;;7.70;49.34;101197.09;10305303;28;20050;-62
2022/02/07 17:10:49;;;;;;;7.65;2.20;;;;;;;7.85;49.33;101224.56;10306631;28;20197;-61
2022/02/07 17:15:51;;;;;;;4.00;1.45;;;;;;;7.92;49.71;101238.34;10311940;28;20045;-61
2022/02/07 17:20:53;;;;;;;5.25;1.70;;;;;;;7.54;49.71;101233.28;10308701;28;20062;-61
2022/02/07 17:25:54;;;;;;;4.65;2.22;;;;;;;7.66;50.96;101250.34;10308629;28;20053;-61
2022/02/07 17:30:57;;;;;;;8.35;2.63;;;;;;;7.55;50.22;101258.81;10310031;28;20062;-62
2022/02/07 17:36:03;;;;;;;6.87;2.17;;;;;;;7.46;51.14;101268.13;10306755;28;20061;-62
2022/02/07 17:41:09;;;;;;;8.73;2.40;;;;;;;7.22;51.44;101249.91;10328574;28;21291;-62
2022/02/07 17:46:14;;;;;;;4.72;1.90;;;;;;;7.37;51.26;101276.53;10342067;28;20301;-61
2022/02/07 17:51:15;;;;;;;4.80;2.23;;;;;;;7.32;52.04;101271.47;10312682;28;20046;-61
2022/02/07 17:56:17;;;;;;;5.85;2.80;;;;;;;7.38;52.10;101271.16;10300182;28;20054;-60
2022/02/07 18:01:18;;;;;;;6.43;4.60;;;;;;;7.48;52.83;101282.16;10298470;28;20054;-60
2022/02/07 18:06:23;;;;;;;8.30;3.55;;;;;;;7.30;52.85;101241.56;10298297;28;20536;-61
2022/02/07 18:11:25;;;;;;;8.70;5.03;;;;;;;7.44;53.03;101270.81;10306857;28;20116;-60
2022/02/07 18:16:26;;;;;;;7.15;4.22;;;;;;;7.26;54.00;101277.91;10311184;28;20049;-61
2022/02/07 18:21:38;;;;;;;4.88;2.50;;;;;;;7.25;54.47;101283.28;10308219;28;20054;-61
2022/02/07 18:26:40;;;;;;;6.47;3.97;;;;;;;7.23;55.29;101274.56;10301978;28;20141;-60
2022/02/07 18:31:43;;;;;;;8.10;4.00;;;;;;;7.17;55.35;101275.72;10316132;28;20474;-61
2022/02/07 18:36:49;;;;;;;6.88;2.95;;;;;;;7.15;56.66;101274.97;10305272;28;20053;-61
2022/02/07 18:42:00;;;;;;;7.68;3.60;;;;;;;7.15;56.72;101263.53;10302898;28;20049;-61
2022/02/07 18:47:06;;;;;;;9.70;3.77;;;;;;;7.23;57.10;101293.13;10305133;28;20755;-62
2022/02/07 18:52:07;;;;;;;6.70;2.85;;;;;;;7.13;55.98;101274.19;10301009;28;20297;-61
2022/02/07 18:57:09;;;;;;;7.97;2.75;;;;;;;7.04;57.76;101288.75;10304282;28;20133;-61
2022/02/07 19:02:27;;;;;;;9.65;3.30;;;;;;;6.99;58.14;101266.91;10304552;28;20085;-61
2022/02/07 19:07:28;;;;;;;7.75;2.92;;;;;;;6.91;57.48;101284.97;10327755;28;20057;-62
2022/02/07 19:12:30;;;;;;;8.48;3.08;;;;;;;6.93;57.34;101288.41;10305785;28;20061;-62
2022/02/07 19:17:34;;;;;;;4.60;2.35;;;;;;;6.93;57.00;101306.94;10305424;28;20054;-61
2022/02/07 19:22:39;;;;;;;8.35;3.05;;;;;;;6.86;58.73;101293.16;10313270;28;20065;-62
2022/02/07 19:27:53;;;;;;;8.45;3.35;;;;;;;6.80;57.44;101305.78;10304769;28;20065;-60
2022/02/07 19:33:00;;;;;;;9.00;3.30;;;;;;;6.73;57.96;101321.97;10314103;28;20128;-62
2022/02/07 19:38:01;;;;;;;8.27;3.03;;;;;;;6.56;58.25;101308.69;10311959;28;21974;-61
2022/02/07 19:43:14;;;;;;;8.10;3.38;;;;;;;6.68;57.86;101329.28;10309565;28;20593;-61
2022/02/07 19:48:17;;;;;;;6.25;2.70;;;;;;;6.51;58.39;101306.25;10304864;28;20134;-61
2022/02/07 19:53:18;;;;;;;11.43;3.17;;;;;;;6.22;58.70;101304.94;10307793;28;20041;-61
2022/02/07 19:58:20;;;;;;;6.20;3.47;;;;;;;5.93;59.94;101315.03;10323537;28;20089;-61
2022/02/07 20:03:24;;;;;;;7.43;2.45;;;;;;;6.02;61.06;101334.94;10316049;28;20132;-61
2022/02/07 20:08:26;;;;;;;8.02;2.47;;;;;;;6.03;60.20;101331.34;10322328;28;20061;-61
2022/02/07 20:13:29;;;;;;;6.70;2.63;;;;;;;5.87;60.86;101336.44;10310112;28;20457;-62
2022/02/07 20:18:30;;;;;;;7.05;3.17;;;;;;;5.72;60.91;101347.66;10314900;28;20050;-62
2022/02/07 20:23:35;;;;;;;5.18;2.00;;;;;;;5.59;61.32;101337.59;10310304;28;20046;-61
2022/02/07 20:28:38;;;;;;;5.97;3.00;;;;;;;5.60;61.55;101354.31;10311041;28;20158;-63
2022/02/07 20:33:42;;;;;;;9.13;2.92;;;;;;;5.30;62.71;101342.31;10314601;28;20136;-61
2022/02/07 20:38:44;;;;;;;7.75;3.67;;;;;;;5.46;62.58;101352.25;10316925;28;20050;-60
2022/02/07 20:43:47;;;;;;;7.82;2.90;;;;;;;5.28;62.80;101356.50;10308407;28;20058;-60
2022/02/07 20:48:53;;;;;;;7.30;3.03;;;;;;;5.25;63.29;101357.47;10306566;28;20057;-61
2022/02/07 20:53:54;;;;;;;7.32;3.33;;;;;;;5.15;63.38;101364.06;10310562;28;20057;-61
2022/02/07 20:58:56;;;;;;;6.55;2.88;;;;;;;5.23;63.67;101377.81;10316359;28;20056;-61
2022/02/07 21:04:11;;;;;;;6.85;3.38;;;;;;;5.02;63.61;101360.19;10319363;28;20041;-61
2022/02/07 21:09:15;;;;;;;9.55;3.40;;;;;;;5.08;64.17;101389.84;10341816;28;20049;-61
2022/02/07 21:14:17;;;;;;;10.80;3.85;;;;;;;5.20;63.47;101396.41;10338931;28;20052;-61
2022/02/07 21:19:19;;;;;;;6.43;3.33;;;;;;;5.12;63.75;101395.88;10339445;28;20968;-61
2022/02/07 21:24:21;;;;;;;8.05;3.55;;;;;;;5.07;64.16;101398.66;10306928;28;20058;-59
2022/02/07 21:29:22;;;;;;;9.68;3.47;;;;;;;5.07;64.41;101400.47;10310550;28;20045;-59
2022/02/07 21:34:39;;;;;;;10.55;3.80;;;;;;;5.13;64.61;101397.56;10301652;28;20151;-60
2022/02/07 21:39:40;;;;;;;8.50;3.40;;;;;;;5.18;63.92;101400.91;10302147;28;20053;-59
2022/02/07 21:44:41;;;;;;;10.25;3.60;;;;;;;5.23;63.73;101395.44;10305044;28;20084;-61
2022/02/07 21:49:43;;;;;;;6.93;3.53;;;;;;;5.30;63.73;101410.13;10317646;28;20501;-64
2022/02/07 21:54:44;;;;;;;6.97;2.38;;;;;;;5.24;63.80;101415.63;10308647;28;20536;-63
2022/02/07 21:59:46;;;;;;;10.52;4.15;;;;;;;5.16;63.46;101415.94;10311945;28;20097;-64
2022/02/07 22:04:50;;;;;;;8.55;2.78;;;;;;;5.01;63.79;101408.63;10315105;28;20050;-64
2022/02/07 22:09:54;;;;;;;7.97;3.80;;;;;;;5.11;63.61;101405.56;10313740;28;20224;-64
2022/02/07 22:20:12;;;;;;;5.80;2.70;;;;;;;5.34;63.76;101432.81;10315618;28;20046;-64
2022/02/07 22:25:14;;;;;;;5.45;3.00;;;;;;;5.03;63.89;101385.66;10317706;28;20338;-63
2022/02/07 22:30:18;;;;;;;7.13;3.30;;;;;;;5.38;63.65;101437.06;10314724;28;20620;-64
2022/02/07 22:35:20;;;;;;;6.67;2.90;;;;;;;5.51;63.75;101442.72;10310492;28;20038;-63
2022/02/07 22:40:21;;;;;;;5.85;3.10;;;;;;;5.55;64.23;101446.09;10312394;28;20050;-63
2022/02/07 22:45:25;;;;;;;4.10;2.50;;;;;;;5.61;62.79;101451.13;10314107;28;20054;-63
2022/02/07 22:50:26;;;;;;;6.32;2.28;;;;;;;5.64;63.20;101451.88;10321114;28;20137;-61
2022/02/07 22:55:27;;;;;;;4.72;2.63;;;;;;;5.55;63.27;101462.78;10311273;28;20686;-63
2022/02/07 23:00:34;;;;;;;4.63;2.55;;;;;;;5.40;63.37;101472.19;10309553;28;20056;-63
2022/02/07 23:05:41;;;;;;;7.82;2.90;;;;;;;5.28;63.95;101468.28;10308136;28;20046;-63
2022/02/07 23:16:19;;;;;;;5.90;2.35;;;;;;;5.40;63.61;101489.81;10312624;28;20053;-64
2022/02/07 23:36:56;;;;;;;5.72;2.13;;;;;;;4.88;64.99;101508.47;10320953;28;20048;-64
2022/02/07 23:41:58;;;;;;;8.15;2.50;;;;;;;4.82;65.08;101504.31;10318200;28;20054;-63
2022/02/07 23:47:11;;;;;;;6.32;2.45;;;;;;;4.85;65.43;101496.28;10316998;28;20589;-62
2022/02/07 23:52:32;;;;;;;5.45;1.98;;;;;;;4.94;64.62;101510.91;10326827;28;20049;-63
